Погода Фетхиена 2 недели

Эгейский регион, Турция

25 июня-08 июля
  • 25июня
    Сегодня
    +26°
    +34°
    Ясно и безоблачно
    ВремяПогодаТемператураВлажностьДавлениеВетер, м/сВероятность осадков
    00:00Ясно и безоблачно+26°C61 %755 мм0.9 м/с2 %
    03:00Ясно и безоблачно+25°C67 %755 мм0.9 м/с2 %
    06:00Ясно и безоблачно+25°C77 %754 мм0.6 м/с2 %
    09:00Ясно и безоблачно+28°C43 %755 мм1.6 м/с2 %
    12:00Ясно и безоблачно+31°C50 %755 мм2.4 м/с2 %
    15:00Ясно и безоблачно+33°C43 %755 мм2.8 м/с2 %
    18:00Ясно и безоблачно+33°C47 %754 мм2.1 м/с2 %
    21:00Ясно и безоблачно+29°C64 %754 мм1.3 м/с2 %
  • 26июня
    Среда
    +26°
    +36°
    Ясно и безоблачно
    ВремяПогодаТемператураВлажностьДавлениеВетер, м/сВероятность осадков
    00:00Ясно и безоблачно+28°C68 %754 мм0.9 м/с2 %
    03:00Ясно и безоблачно+27°C64 %753 мм0.9 м/с2 %
    06:00Ясно и безоблачно+26°C62 %753 мм0.6 м/с2 %
    09:00Ясно и безоблачно+31°C29 %753 мм1.4 м/с2 %
    12:00Ясно и безоблачно+33°C36 %754 мм2.5 м/с2 %
    15:00Ясно и безоблачно+35°C39 %754 мм2.8 м/с2 %
    18:00Ясно и безоблачно+35°C41 %753 мм2.2 м/с2 %
    21:00Ясно и безоблачно+30°C54 %754 мм1.1 м/с2 %
  • 27июня
    Четверг
    +25°
    +35°
    Ясно и безоблачно
    ВремяПогодаТемператураВлажностьДавлениеВетер, м/сВероятность осадков
    00:00Ясно и безоблачно+30°C43 %754 мм0.9 м/с2 %
    03:00Ясно и безоблачно+29°C44 %753 мм0.9 м/с2 %
    06:00Ясно и безоблачно+27°C43 %753 мм0.7 м/с2 %
    09:00Ясно и безоблачно+31°C29 %754 мм1.5 м/с2 %
    12:00Ясно и безоблачно+34°C33 %754 мм2.3 м/с2 %
    15:00Ясно и безоблачно+35°C37 %754 мм2.9 м/с2 %
    18:00Ясно и безоблачно+35°C31 %753 мм2.1 м/с2 %
    21:00Ясно и безоблачно+30°C42 %754 мм1.1 м/с2 %
  • 28июня
    Пятница
    +26°
    +35°
    Ясно и безоблачно
    ВремяПогодаТемператураВлажностьДавлениеВетер, м/сВероятность осадков
    00:00Ясно и безоблачно+29°C45 %754 мм0.9 м/с2 %
    03:00Ясно и безоблачно+27°C53 %753 мм1.0 м/с2 %
    06:00Ясно и безоблачно+26°C63 %752 мм0.7 м/с2 %
    09:00Ясно и безоблачно+29°C39 %752 мм1.6 м/с2 %
    12:00Ясно и безоблачно+32°C38 %752 мм2.4 м/с2 %
    15:00Ясно и безоблачно+34°C30 %752 мм2.8 м/с2 %
    18:00Ясно и безоблачно+34°C34 %751 мм2.1 м/с2 %
    21:00Ясно и безоблачно+30°C43 %751 мм1.3 м/с2 %
  • 29июня
    Суббота
    +25°
    +33°
    Небольшая облачность, возможен дождь с грозой
    ВремяПогодаТемператураВлажностьДавлениеВетер, м/сВероятность осадков
    00:00Ясно и безоблачно+28°C47 %750 мм0.9 м/с2 %
    03:00Практически безоблачно+27°C49 %749 мм0.9 м/с2 %
    06:00Практически безоблачно+26°C47 %749 мм0.7 м/с2 %
    09:00Практически безоблачно+29°C36 %750 мм1.4 м/с2 %
    12:00Практически безоблачно+31°C46 %751 мм2.3 м/с9 %
    15:00Небольшая облачность, возможен дождь с грозой+32°C55 %752 мм2.5 м/с36 %
    18:00Практически безоблачно+32°C53 %752 мм2.0 м/с32 %
    21:00Ясно и безоблачно+30°C65 %752 мм1.4 м/с3 %
Мы используем cookies
Соглашаюсь